sensor_id;sensor_type;location;lat;lon;timestamp;P1;durP1;ratioP1;P2;durP2;ratioP2
30707;SDS011;17458;48.958;8.284;2024-03-02T00:01:23;12.93;;;7.13;;
30707;SDS011;17458;48.958;8.284;2024-03-02T00:04:07;15.18;;;8.70;;
30707;SDS011;17458;48.958;8.284;2024-03-02T00:06:52;12.57;;;7.93;;
30707;SDS011;17458;48.958;8.284;2024-03-02T00:09:38;12.57;;;8.55;;
30707;SDS011;17458;48.958;8.284;2024-03-02T00:12:23;15.30;;;9.27;;
30707;SDS011;17458;48.958;8.284;2024-03-02T00:18:26;11.93;;;8.55;;
30707;SDS011;17458;48.958;8.284;2024-03-02T00:21:14;11.88;;;8.10;;
30707;SDS011;17458;48.958;8.284;2024-03-02T00:24:00;12.45;;;7.22;;
30707;SDS011;17458;48.958;8.284;2024-03-02T00:27:05;10.07;;;6.85;;
30707;SDS011;17458;48.958;8.284;2024-03-02T00:29:51;10.00;;;7.03;;
30707;SDS011;17458;48.958;8.284;2024-03-02T00:32:35;13.65;;;7.15;;
30707;SDS011;17458;48.958;8.284;2024-03-02T00:35:19;21.90;;;8.07;;
30707;SDS011;17458;48.958;8.284;2024-03-02T00:38:05;9.32;;;6.68;;
30707;SDS011;17458;48.958;8.284;2024-03-02T00:40:50;9.93;;;7.13;;
30707;SDS011;17458;48.958;8.284;2024-03-02T00:46:19;10.82;;;6.75;;
30707;SDS011;17458;48.958;8.284;2024-03-02T00:51:54;9.52;;;6.95;;
30707;SDS011;17458;48.958;8.284;2024-03-02T00:54:38;15.15;;;8.20;;
30707;SDS011;17458;48.958;8.284;2024-03-02T00:57:22;12.77;;;7.82;;
30707;SDS011;17458;48.958;8.284;2024-03-02T01:00:09;15.15;;;10.00;;
30707;SDS011;17458;48.958;8.284;2024-03-02T01:02:55;10.90;;;8.75;;
30707;SDS011;17458;48.958;8.284;2024-03-02T01:05:43;11.93;;;8.52;;
30707;SDS011;17458;48.958;8.284;2024-03-02T01:08:27;14.40;;;9.05;;
30707;SDS011;17458;48.958;8.284;2024-03-02T01:11:11;12.63;;;8.27;;
30707;SDS011;17458;48.958;8.284;2024-03-02T01:13:55;11.85;;;7.93;;
30707;SDS011;17458;48.958;8.284;2024-03-02T01:16:39;10.40;;;8.05;;
30707;SDS011;17458;48.958;8.284;2024-03-02T01:19:23;19.05;;;8.70;;
30707;SDS011;17458;48.958;8.284;2024-03-02T01:22:07;13.02;;;8.20;;
30707;SDS011;17458;48.958;8.284;2024-03-02T01:24:54;9.80;;;7.78;;
30707;SDS011;17458;48.958;8.284;2024-03-02T01:27:38;9.43;;;7.82;;
30707;SDS011;17458;48.958;8.284;2024-03-02T01:30:22;10.40;;;7.25;;
30707;SDS011;17458;48.958;8.284;2024-03-02T01:33:06;14.13;;;8.10;;
30707;SDS011;17458;48.958;8.284;2024-03-02T01:35:50;10.82;;;8.18;;
30707;SDS011;17458;48.958;8.284;2024-03-02T01:38:34;12.77;;;7.53;;
30707;SDS011;17458;48.958;8.284;2024-03-02T01:41:18;10.23;;;8.13;;
30707;SDS011;17458;48.958;8.284;2024-03-02T01:44:02;13.05;;;8.15;;
30707;SDS011;17458;48.958;8.284;2024-03-02T01:46:47;10.93;;;7.50;;
30707;SDS011;17458;48.958;8.284;2024-03-02T01:49:31;10.57;;;7.75;;
30707;SDS011;17458;48.958;8.284;2024-03-02T01:52:17;12.65;;;8.57;;
30707;SDS011;17458;48.958;8.284;2024-03-02T01:55:02;12.57;;;8.70;;
30707;SDS011;17458;48.958;8.284;2024-03-02T01:57:48;10.60;;;7.80;;
30707;SDS011;17458;48.958;8.284;2024-03-02T02:00:32;11.60;;;7.93;;
30707;SDS011;17458;48.958;8.284;2024-03-02T02:03:16;10.18;;;8.30;;
30707;SDS011;17458;48.958;8.284;2024-03-02T02:06:01;8.25;;;7.15;;
30707;SDS011;17458;48.958;8.284;2024-03-02T02:08:45;10.23;;;7.47;;
30707;SDS011;17458;48.958;8.284;2024-03-02T02:11:30;13.77;;;8.60;;
30707;SDS011;17458;48.958;8.284;2024-03-02T02:14:14;10.25;;;6.97;;
30707;SDS011;17458;48.958;8.284;2024-03-02T02:16:59;15.05;;;7.13;;
30707;SDS011;17458;48.958;8.284;2024-03-02T02:19:43;12.07;;;8.05;;
30707;SDS011;17458;48.958;8.284;2024-03-02T02:22:27;8.77;;;6.63;;
30707;SDS011;17458;48.958;8.284;2024-03-02T02:25:12;8.95;;;6.57;;
30707;SDS011;17458;48.958;8.284;2024-03-02T02:27:56;9.10;;;6.72;;
30707;SDS011;17458;48.958;8.284;2024-03-02T02:30:40;12.27;;;6.72;;
30707;SDS011;17458;48.958;8.284;2024-03-02T02:33:24;7.85;;;6.22;;
30707;SDS011;17458;48.958;8.284;2024-03-02T02:36:08;10.38;;;7.20;;
30707;SDS011;17458;48.958;8.284;2024-03-02T02:38:55;11.80;;;7.30;;
30707;SDS011;17458;48.958;8.284;2024-03-02T02:41:39;11.15;;;7.72;;
30707;SDS011;17458;48.958;8.284;2024-03-02T02:44:23;8.82;;;7.25;;
30707;SDS011;17458;48.958;8.284;2024-03-02T02:47:08;13.82;;;8.20;;
30707;SDS011;17458;48.958;8.284;2024-03-02T02:49:51;17.40;;;8.77;;
30707;SDS011;17458;48.958;8.284;2024-03-02T02:52:36;20.30;;;8.30;;
30707;SDS011;17458;48.958;8.284;2024-03-02T02:55:23;15.30;;;8.70;;
30707;SDS011;17458;48.958;8.284;2024-03-02T02:58:07;10.43;;;8.00;;
30707;SDS011;17458;48.958;8.284;2024-03-02T03:00:51;10.30;;;8.75;;
30707;SDS011;17458;48.958;8.284;2024-03-02T03:03:35;13.73;;;8.85;;
30707;SDS011;17458;48.958;8.284;2024-03-02T03:06:19;11.98;;;7.90;;
30707;SDS011;17458;48.958;8.284;2024-03-02T03:09:03;10.43;;;8.20;;
30707;SDS011;17458;48.958;8.284;2024-03-02T03:11:47;11.80;;;7.13;;
30707;SDS011;17458;48.958;8.284;2024-03-02T03:14:31;9.13;;;7.43;;
30707;SDS011;17458;48.958;8.284;2024-03-02T03:17:15;11.10;;;7.88;;
30707;SDS011;17458;48.958;8.284;2024-03-02T03:19:59;9.57;;;7.00;;
30707;SDS011;17458;48.958;8.284;2024-03-02T03:22:44;13.73;;;7.60;;
30707;SDS011;17458;48.958;8.284;2024-03-02T03:25:28;19.67;;;7.65;;
30707;SDS011;17458;48.958;8.284;2024-03-02T03:28:12;11.98;;;7.55;;
30707;SDS011;17458;48.958;8.284;2024-03-02T03:30:56;10.93;;;7.30;;
30707;SDS011;17458;48.958;8.284;2024-03-02T03:33:40;9.05;;;7.32;;
30707;SDS011;17458;48.958;8.284;2024-03-02T03:36:24;11.25;;;7.35;;
30707;SDS011;17458;48.958;8.284;2024-03-02T03:39:07;9.82;;;7.50;;
30707;SDS011;17458;48.958;8.284;2024-03-02T03:41:51;13.35;;;8.00;;
30707;SDS011;17458;48.958;8.284;2024-03-02T03:44:35;12.85;;;8.82;;
30707;SDS011;17458;48.958;8.284;2024-03-02T03:47:19;18.13;;;8.55;;
30707;SDS011;17458;48.958;8.284;2024-03-02T03:50:04;26.13;;;8.43;;
30707;SDS011;17458;48.958;8.284;2024-03-02T03:52:50;13.50;;;8.55;;
30707;SDS011;17458;48.958;8.284;2024-03-02T03:55:34;9.98;;;7.78;;
30707;SDS011;17458;48.958;8.284;2024-03-02T03:58:18;9.70;;;7.80;;
30707;SDS011;17458;48.958;8.284;2024-03-02T04:01:04;13.27;;;8.25;;
30707;SDS011;17458;48.958;8.284;2024-03-02T04:03:48;14.18;;;8.32;;
30707;SDS011;17458;48.958;8.284;2024-03-02T04:06:32;12.43;;;7.78;;
30707;SDS011;17458;48.958;8.284;2024-03-02T04:09:16;9.68;;;6.25;;
30707;SDS011;17458;48.958;8.284;2024-03-02T04:12:01;9.80;;;7.05;;
30707;SDS011;17458;48.958;8.284;2024-03-02T04:14:46;8.55;;;6.80;;
30707;SDS011;17458;48.958;8.284;2024-03-02T04:17:31;14.88;;;10.10;;
30707;SDS011;17458;48.958;8.284;2024-03-02T04:20:16;12.65;;;7.47;;
30707;SDS011;17458;48.958;8.284;2024-03-02T04:23:00;10.15;;;7.65;;
30707;SDS011;17458;48.958;8.284;2024-03-02T04:25:44;7.78;;;6.63;;
30707;SDS011;17458;48.958;8.284;2024-03-02T04:28:27;11.73;;;7.75;;
30707;SDS011;17458;48.958;8.284;2024-03-02T04:31:12;10.75;;;7.40;;
30707;SDS011;17458;48.958;8.284;2024-03-02T04:33:56;10.15;;;7.10;;
30707;SDS011;17458;48.958;8.284;2024-03-02T04:36:40;9.15;;;7.65;;
30707;SDS011;17458;48.958;8.284;2024-03-02T04:39:24;10.18;;;8.13;;
30707;SDS011;17458;48.958;8.284;2024-03-02T04:42:08;10.90;;;7.20;;
30707;SDS011;17458;48.958;8.284;2024-03-02T04:44:52;11.73;;;7.07;;
30707;SDS011;17458;48.958;8.284;2024-03-02T04:47:37;8.57;;;6.10;;
30707;SDS011;17458;48.958;8.284;2024-03-02T04:50:20;9.20;;;7.60;;
30707;SDS011;17458;48.958;8.284;2024-03-02T04:53:05;8.93;;;6.32;;
30707;SDS011;17458;48.958;8.284;2024-03-02T04:55:48;8.20;;;7.20;;
30707;SDS011;17458;48.958;8.284;2024-03-02T04:58:56;7.65;;;6.90;;
30707;SDS011;17458;48.958;8.284;2024-03-02T05:01:40;13.27;;;7.70;;
30707;SDS011;17458;48.958;8.284;2024-03-02T05:04:24;7.25;;;6.50;;
30707;SDS011;17458;48.958;8.284;2024-03-02T05:07:08;10.93;;;8.05;;
30707;SDS011;17458;48.958;8.284;2024-03-02T05:09:52;8.23;;;7.05;;
30707;SDS011;17458;48.958;8.284;2024-03-02T05:12:36;9.48;;;7.68;;
30707;SDS011;17458;48.958;8.284;2024-03-02T05:15:26;16.25;;;7.90;;
30707;SDS011;17458;48.958;8.284;2024-03-02T05:18:10;8.68;;;7.00;;
30707;SDS011;17458;48.958;8.284;2024-03-02T05:20:53;7.88;;;6.70;;
30707;SDS011;17458;48.958;8.284;2024-03-02T05:23:37;11.40;;;7.35;;
30707;SDS011;17458;48.958;8.284;2024-03-02T05:26:22;15.73;;;6.45;;
30707;SDS011;17458;48.958;8.284;2024-03-02T05:29:06;10.73;;;7.22;;
30707;SDS011;17458;48.958;8.284;2024-03-02T05:31:51;7.78;;;6.07;;
30707;SDS011;17458;48.958;8.284;2024-03-02T05:34:34;7.50;;;6.10;;
30707;SDS011;17458;48.958;8.284;2024-03-02T05:37:19;6.38;;;5.10;;
30707;SDS011;17458;48.958;8.284;2024-03-02T05:40:04;5.18;;;4.63;;
30707;SDS011;17458;48.958;8.284;2024-03-02T05:42:49;7.55;;;5.68;;
30707;SDS011;17458;48.958;8.284;2024-03-02T05:45:33;7.55;;;5.10;;
30707;SDS011;17458;48.958;8.284;2024-03-02T05:48:17;5.80;;;5.25;;
30707;SDS011;17458;48.958;8.284;2024-03-02T05:51:01;8.90;;;6.53;;
30707;SDS011;17458;48.958;8.284;2024-03-02T05:53:45;9.63;;;5.18;;
30707;SDS011;17458;48.958;8.284;2024-03-02T05:56:29;6.40;;;4.97;;
30707;SDS011;17458;48.958;8.284;2024-03-02T05:59:13;5.45;;;4.95;;
30707;SDS011;17458;48.958;8.284;2024-03-02T06:01:58;7.95;;;5.22;;
30707;SDS011;17458;48.958;8.284;2024-03-02T06:04:42;4.95;;;4.55;;
30707;SDS011;17458;48.958;8.284;2024-03-02T06:07:25;4.78;;;4.13;;
30707;SDS011;17458;48.958;8.284;2024-03-02T06:10:09;6.35;;;5.00;;
30707;SDS011;17458;48.958;8.284;2024-03-02T06:12:54;5.82;;;5.15;;
30707;SDS011;17458;48.958;8.284;2024-03-02T06:15:38;6.97;;;5.00;;
30707;SDS011;17458;48.958;8.284;2024-03-02T06:18:22;6.07;;;5.30;;
30707;SDS011;17458;48.958;8.284;2024-03-02T06:21:06;9.55;;;6.47;;
30707;SDS011;17458;48.958;8.284;2024-03-02T06:23:50;7.22;;;5.32;;
30707;SDS011;17458;48.958;8.284;2024-03-02T06:26:35;6.57;;;5.40;;
30707;SDS011;17458;48.958;8.284;2024-03-02T06:29:19;6.43;;;5.43;;
30707;SDS011;17458;48.958;8.284;2024-03-02T06:32:03;5.45;;;4.95;;
30707;SDS011;17458;48.958;8.284;2024-03-02T06:34:47;5.57;;;5.00;;
30707;SDS011;17458;48.958;8.284;2024-03-02T06:37:31;7.37;;;5.47;;
30707;SDS011;17458;48.958;8.284;2024-03-02T06:40:15;6.95;;;5.68;;
30707;SDS011;17458;48.958;8.284;2024-03-02T06:42:59;16.42;;;6.25;;
30707;SDS011;17458;48.958;8.284;2024-03-02T06:45:43;9.85;;;6.03;;
30707;SDS011;17458;48.958;8.284;2024-03-02T06:48:27;5.95;;;5.28;;
30707;SDS011;17458;48.958;8.284;2024-03-02T06:51:12;6.25;;;5.65;;
30707;SDS011;17458;48.958;8.284;2024-03-02T06:53:56;7.10;;;5.80;;
30707;SDS011;17458;48.958;8.284;2024-03-02T06:56:40;6.93;;;5.15;;
30707;SDS011;17458;48.958;8.284;2024-03-02T06:59:24;5.22;;;4.72;;
30707;SDS011;17458;48.958;8.284;2024-03-02T07:02:08;6.05;;;4.10;;
30707;SDS011;17458;48.958;8.284;2024-03-02T07:04:52;8.27;;;4.68;;
30707;SDS011;17458;48.958;8.284;2024-03-02T07:07:37;8.68;;;4.65;;
30707;SDS011;17458;48.958;8.284;2024-03-02T07:10:22;5.90;;;5.30;;
30707;SDS011;17458;48.958;8.284;2024-03-02T07:13:06;6.97;;;5.35;;
30707;SDS011;17458;48.958;8.284;2024-03-02T07:15:50;11.32;;;7.07;;
30707;SDS011;17458;48.958;8.284;2024-03-02T07:18:46;11.52;;;6.95;;
30707;SDS011;17458;48.958;8.284;2024-03-02T07:21:35;10.10;;;7.47;;
30707;SDS011;17458;48.958;8.284;2024-03-02T07:24:19;9.95;;;7.63;;
30707;SDS011;17458;48.958;8.284;2024-03-02T07:27:03;8.65;;;7.78;;
30707;SDS011;17458;48.958;8.284;2024-03-02T07:29:47;6.55;;;5.90;;
30707;SDS011;17458;48.958;8.284;2024-03-02T07:32:31;8.70;;;6.78;;
30707;SDS011;17458;48.958;8.284;2024-03-02T07:35:15;10.63;;;7.03;;
30707;SDS011;17458;48.958;8.284;2024-03-02T07:37:59;14.80;;;9.52;;
30707;SDS011;17458;48.958;8.284;2024-03-02T07:40:43;17.98;;;10.30;;
30707;SDS011;17458;48.958;8.284;2024-03-02T07:43:27;14.68;;;10.25;;
30707;SDS011;17458;48.958;8.284;2024-03-02T07:46:11;19.02;;;10.80;;
30707;SDS011;17458;48.958;8.284;2024-03-02T07:48:56;26.38;;;12.98;;
30707;SDS011;17458;48.958;8.284;2024-03-02T07:51:40;20.23;;;11.13;;
30707;SDS011;17458;48.958;8.284;2024-03-02T07:54:24;21.25;;;11.02;;
30707;SDS011;17458;48.958;8.284;2024-03-02T07:57:08;13.57;;;9.52;;
30707;SDS011;17458;48.958;8.284;2024-03-02T07:59:52;12.65;;;8.18;;
30707;SDS011;17458;48.958;8.284;2024-03-02T08:02:36;11.35;;;7.60;;
30707;SDS011;17458;48.958;8.284;2024-03-02T08:05:20;12.02;;;7.50;;
30707;SDS011;17458;48.958;8.284;2024-03-02T08:08:04;14.10;;;8.20;;
30707;SDS011;17458;48.958;8.284;2024-03-02T08:10:49;12.52;;;7.65;;
30707;SDS011;17458;48.958;8.284;2024-03-02T08:13:33;14.63;;;7.32;;
30707;SDS011;17458;48.958;8.284;2024-03-02T08:16:17;8.70;;;5.55;;
30707;SDS011;17458;48.958;8.284;2024-03-02T08:19:05;10.20;;;5.68;;
30707;SDS011;17458;48.958;8.284;2024-03-02T08:21:48;7.72;;;4.95;;
30707;SDS011;17458;48.958;8.284;2024-03-02T08:24:32;6.18;;;4.55;;
30707;SDS011;17458;48.958;8.284;2024-03-02T08:27:16;8.73;;;4.80;;
30707;SDS011;17458;48.958;8.284;2024-03-02T08:30:01;7.93;;;3.88;;
30707;SDS011;17458;48.958;8.284;2024-03-02T08:32:47;4.85;;;3.20;;
30707;SDS011;17458;48.958;8.284;2024-03-02T08:35:31;8.20;;;3.33;;
30707;SDS011;17458;48.958;8.284;2024-03-02T08:38:19;3.10;;;2.80;;
30707;SDS011;17458;48.958;8.284;2024-03-02T08:41:04;5.13;;;3.22;;
30707;SDS011;17458;48.958;8.284;2024-03-02T08:43:48;7.10;;;2.65;;
30707;SDS011;17458;48.958;8.284;2024-03-02T08:46:32;2.70;;;2.50;;
30707;SDS011;17458;48.958;8.284;2024-03-02T08:49:16;5.57;;;2.88;;
30707;SDS011;17458;48.958;8.284;2024-03-02T08:52:00;3.35;;;2.95;;
30707;SDS011;17458;48.958;8.284;2024-03-02T08:54:44;4.75;;;2.63;;
30707;SDS011;17458;48.958;8.284;2024-03-02T08:57:28;2.72;;;2.53;;
30707;SDS011;17458;48.958;8.284;2024-03-02T09:00:12;3.15;;;2.70;;
30707;SDS011;17458;48.958;8.284;2024-03-02T09:02:56;4.88;;;2.30;;
30707;SDS011;17458;48.958;8.284;2024-03-02T09:05:40;2.55;;;2.10;;
30707;SDS011;17458;48.958;8.284;2024-03-02T09:08:24;3.85;;;2.22;;
30707;SDS011;17458;48.958;8.284;2024-03-02T09:11:08;8.50;;;2.17;;
30707;SDS011;17458;48.958;8.284;2024-03-02T09:13:53;3.35;;;2.30;;
30707;SDS011;17458;48.958;8.284;2024-03-02T09:16:38;3.08;;;2.20;;
30707;SDS011;17458;48.958;8.284;2024-03-02T09:19:22;2.00;;;1.83;;
30707;SDS011;17458;48.958;8.284;2024-03-02T09:22:06;2.85;;;2.42;;
30707;SDS011;17458;48.958;8.284;2024-03-02T09:24:50;4.10;;;2.35;;
30707;SDS011;17458;48.958;8.284;2024-03-02T09:27:37;2.92;;;2.70;;
30707;SDS011;17458;48.958;8.284;2024-03-02T09:30:22;4.45;;;2.50;;
30707;SDS011;17458;48.958;8.284;2024-03-02T09:33:06;3.03;;;2.72;;
30707;SDS011;17458;48.958;8.284;2024-03-02T09:35:50;4.05;;;3.15;;
30707;SDS011;17458;48.958;8.284;2024-03-02T09:38:33;3.67;;;3.00;;
30707;SDS011;17458;48.958;8.284;2024-03-02T09:41:17;3.85;;;3.30;;
30707;SDS011;17458;48.958;8.284;2024-03-02T09:44:03;8.20;;;3.35;;
30707;SDS011;17458;48.958;8.284;2024-03-02T09:46:48;3.00;;;2.53;;
30707;SDS011;17458;48.958;8.284;2024-03-02T09:49:32;5.95;;;2.97;;
30707;SDS011;17458;48.958;8.284;2024-03-02T09:52:16;11.80;;;6.03;;
30707;SDS011;17458;48.958;8.284;2024-03-02T09:55:00;6.63;;;4.68;;
30707;SDS011;17458;48.958;8.284;2024-03-02T09:57:45;13.25;;;5.80;;
30707;SDS011;17458;48.958;8.284;2024-03-02T10:00:29;13.55;;;5.45;;
30707;SDS011;17458;48.958;8.284;2024-03-02T10:03:13;7.18;;;4.57;;
30707;SDS011;17458;48.958;8.284;2024-03-02T10:06:09;4.13;;;3.63;;
30707;SDS011;17458;48.958;8.284;2024-03-02T10:09:04;4.15;;;3.10;;
30707;SDS011;17458;48.958;8.284;2024-03-02T10:11:48;7.35;;;3.80;;
30707;SDS011;17458;48.958;8.284;2024-03-02T10:14:32;3.85;;;3.05;;
30707;SDS011;17458;48.958;8.284;2024-03-02T10:17:17;5.15;;;2.90;;
30707;SDS011;17458;48.958;8.284;2024-03-02T10:20:20;3.90;;;2.83;;
30707;SDS011;17458;48.958;8.284;2024-03-02T10:23:14;5.40;;;3.78;;
30707;SDS011;17458;48.958;8.284;2024-03-02T10:25:59;5.15;;;2.92;;
30707;SDS011;17458;48.958;8.284;2024-03-02T10:28:47;6.03;;;2.60;;
30707;SDS011;17458;48.958;8.284;2024-03-02T10:31:46;4.65;;;3.22;;
30707;SDS011;17458;48.958;8.284;2024-03-02T10:34:30;5.60;;;3.33;;
30707;SDS011;17458;48.958;8.284;2024-03-02T10:37:14;4.63;;;2.80;;
30707;SDS011;17458;48.958;8.284;2024-03-02T10:40:04;4.10;;;3.45;;
30707;SDS011;17458;48.958;8.284;2024-03-02T10:42:52;4.35;;;3.28;;
30707;SDS011;17458;48.958;8.284;2024-03-02T10:45:36;5.10;;;3.72;;
30707;SDS011;17458;48.958;8.284;2024-03-02T10:48:20;3.65;;;3.10;;
30707;SDS011;17458;48.958;8.284;2024-03-02T10:51:05;3.22;;;2.92;;
30707;SDS011;17458;48.958;8.284;2024-03-02T10:53:49;3.17;;;2.65;;
30707;SDS011;17458;48.958;8.284;2024-03-02T10:56:33;3.22;;;2.55;;
30707;SDS011;17458;48.958;8.284;2024-03-02T10:59:32;2.45;;;2.22;;
30707;SDS011;17458;48.958;8.284;2024-03-02T11:02:18;2.75;;;1.88;;
30707;SDS011;17458;48.958;8.284;2024-03-02T11:05:05;4.57;;;2.40;;
30707;SDS011;17458;48.958;8.284;2024-03-02T11:07:53;2.97;;;2.10;;
30707;SDS011;17458;48.958;8.284;2024-03-02T11:13:40;3.72;;;1.80;;
30707;SDS011;17458;48.958;8.284;2024-03-02T11:16:36;1.65;;;1.55;;
30707;SDS011;17458;48.958;8.284;2024-03-02T11:19:20;2.30;;;1.88;;
30707;SDS011;17458;48.958;8.284;2024-03-02T11:22:05;2.03;;;1.83;;
30707;SDS011;17458;48.958;8.284;2024-03-02T11:24:50;2.38;;;1.58;;
30707;SDS011;17458;48.958;8.284;2024-03-02T11:27:59;1.58;;;1.48;;
30707;SDS011;17458;48.958;8.284;2024-03-02T11:33:30;3.35;;;1.98;;
30707;SDS011;17458;48.958;8.284;2024-03-02T11:36:14;2.83;;;1.77;;
30707;SDS011;17458;48.958;8.284;2024-03-02T11:38:59;3.35;;;2.10;;
30707;SDS011;17458;48.958;8.284;2024-03-02T11:41:43;2.45;;;1.77;;
30707;SDS011;17458;48.958;8.284;2024-03-02T11:44:29;3.05;;;1.80;;
30707;SDS011;17458;48.958;8.284;2024-03-02T11:47:16;2.38;;;1.70;;
30707;SDS011;17458;48.958;8.284;2024-03-02T11:50:04;1.88;;;1.73;;
30707;SDS011;17458;48.958;8.284;2024-03-02T11:52:50;1.80;;;1.60;;
30707;SDS011;17458;48.958;8.284;2024-03-02T11:55:35;2.75;;;1.50;;
30707;SDS011;17458;48.958;8.284;2024-03-02T11:58:20;2.05;;;1.60;;
30707;SDS011;17458;48.958;8.284;2024-03-02T12:01:07;1.98;;;1.65;;
30707;SDS011;17458;48.958;8.284;2024-03-02T12:03:52;3.13;;;1.50;;
30707;SDS011;17458;48.958;8.284;2024-03-02T12:06:38;1.35;;;1.25;;
30707;SDS011;17458;48.958;8.284;2024-03-02T12:09:22;1.75;;;1.45;;
30707;SDS011;17458;48.958;8.284;2024-03-02T12:12:07;1.42;;;1.33;;
30707;SDS011;17458;48.958;8.284;2024-03-02T12:14:52;5.47;;;1.85;;
30707;SDS011;17458;48.958;8.284;2024-03-02T12:17:39;1.48;;;1.35;;
30707;SDS011;17458;48.958;8.284;2024-03-02T12:20:23;4.43;;;1.30;;
30707;SDS011;17458;48.958;8.284;2024-03-02T12:23:08;2.72;;;1.40;;
30707;SDS011;17458;48.958;8.284;2024-03-02T12:25:51;1.77;;;1.17;;
30707;SDS011;17458;48.958;8.284;2024-03-02T12:28:36;1.60;;;1.48;;
30707;SDS011;17458;48.958;8.284;2024-03-02T12:31:20;2.90;;;1.05;;
30707;SDS011;17458;48.958;8.284;2024-03-02T12:34:04;3.28;;;1.25;;
30707;SDS011;17458;48.958;8.284;2024-03-02T12:36:49;3.72;;;2.33;;
30707;SDS011;17458;48.958;8.284;2024-03-02T12:39:36;1.38;;;1.27;;
30707;SDS011;17458;48.958;8.284;2024-03-02T12:42:20;1.92;;;1.40;;
30707;SDS011;17458;48.958;8.284;2024-03-02T12:45:04;3.00;;;1.58;;
30707;SDS011;17458;48.958;8.284;2024-03-02T12:47:49;1.30;;;1.20;;
30707;SDS011;17458;48.958;8.284;2024-03-02T12:50:34;1.40;;;1.30;;
30707;SDS011;17458;48.958;8.284;2024-03-02T12:53:18;1.30;;;1.20;;
30707;SDS011;17458;48.958;8.284;2024-03-02T12:56:02;2.88;;;1.50;;
30707;SDS011;17458;48.958;8.284;2024-03-02T12:58:47;1.63;;;1.40;;
30707;SDS011;17458;48.958;8.284;2024-03-02T13:01:36;1.40;;;1.30;;
30707;SDS011;17458;48.958;8.284;2024-03-02T13:04:27;1.35;;;1.20;;
30707;SDS011;17458;48.958;8.284;2024-03-02T13:07:12;1.33;;;1.15;;
30707;SDS011;17458;48.958;8.284;2024-03-02T13:09:57;1.38;;;1.27;;
30707;SDS011;17458;48.958;8.284;2024-03-02T13:12:42;1.75;;;1.10;;
30707;SDS011;17458;48.958;8.284;2024-03-02T13:15:26;1.10;;;1.00;;
30707;SDS011;17458;48.958;8.284;2024-03-02T13:18:11;4.00;;;1.20;;
30707;SDS011;17458;48.958;8.284;2024-03-02T13:20:55;2.05;;;1.10;;
30707;SDS011;17458;48.958;8.284;2024-03-02T13:23:39;1.10;;;1.00;;
30707;SDS011;17458;48.958;8.284;2024-03-02T13:26:23;0.98;;;0.95;;
30707;SDS011;17458;48.958;8.284;2024-03-02T13:29:07;1.38;;;1.27;;
30707;SDS011;17458;48.958;8.284;2024-03-02T13:31:51;1.00;;;0.93;;
30707;SDS011;17458;48.958;8.284;2024-03-02T13:34:36;1.77;;;1.52;;
30707;SDS011;17458;48.958;8.284;2024-03-02T13:37:23;0.85;;;0.85;;
30707;SDS011;17458;48.958;8.284;2024-03-02T13:40:07;2.08;;;1.30;;
30707;SDS011;17458;48.958;8.284;2024-03-02T13:42:56;1.50;;;1.00;;
30707;SDS011;17458;48.958;8.284;2024-03-02T13:45:40;4.53;;;1.33;;
30707;SDS011;17458;48.958;8.284;2024-03-02T13:48:24;1.13;;;1.00;;
30707;SDS011;17458;48.958;8.284;2024-03-02T13:51:09;1.15;;;1.02;;
30707;SDS011;17458;48.958;8.284;2024-03-02T13:53:53;1.35;;;1.13;;
30707;SDS011;17458;48.958;8.284;2024-03-02T13:56:37;3.67;;;1.10;;
30707;SDS011;17458;48.958;8.284;2024-03-02T13:59:23;1.38;;;1.02;;
30707;SDS011;17458;48.958;8.284;2024-03-02T14:02:07;1.05;;;1.02;;
30707;SDS011;17458;48.958;8.284;2024-03-02T14:04:52;1.10;;;0.93;;
30707;SDS011;17458;48.958;8.284;2024-03-02T14:07:37;1.65;;;1.17;;
30707;SDS011;17458;48.958;8.284;2024-03-02T14:10:22;0.90;;;0.90;;
30707;SDS011;17458;48.958;8.284;2024-03-02T14:13:06;2.63;;;1.15;;
30707;SDS011;17458;48.958;8.284;2024-03-02T14:15:50;2.30;;;1.30;;
30707;SDS011;17458;48.958;8.284;2024-03-02T14:18:34;6.00;;;1.52;;
30707;SDS011;17458;48.958;8.284;2024-03-02T14:21:19;1.25;;;1.13;;
30707;SDS011;17458;48.958;8.284;2024-03-02T14:24:03;1.73;;;1.00;;
30707;SDS011;17458;48.958;8.284;2024-03-02T14:26:48;2.58;;;1.15;;
30707;SDS011;17458;48.958;8.284;2024-03-02T14:29:31;0.93;;;0.88;;
30707;SDS011;17458;48.958;8.284;2024-03-02T14:32:20;1.17;;;1.02;;
30707;SDS011;17458;48.958;8.284;2024-03-02T14:35:04;2.38;;;1.13;;
30707;SDS011;17458;48.958;8.284;2024-03-02T14:37:48;1.13;;;0.93;;
30707;SDS011;17458;48.958;8.284;2024-03-02T14:40:32;0.88;;;0.88;;
30707;SDS011;17458;48.958;8.284;2024-03-02T14:43:17;1.23;;;1.00;;
30707;SDS011;17458;48.958;8.284;2024-03-02T14:46:01;1.20;;;1.10;;
30707;SDS011;17458;48.958;8.284;2024-03-02T14:48:45;1.33;;;1.23;;
30707;SDS011;17458;48.958;8.284;2024-03-02T14:51:29;3.63;;;1.20;;
30707;SDS011;17458;48.958;8.284;2024-03-02T14:54:14;5.45;;;1.17;;
30707;SDS011;17458;48.958;8.284;2024-03-02T14:56:58;0.88;;;0.85;;
30707;SDS011;17458;48.958;8.284;2024-03-02T14:59:44;0.90;;;0.90;;
30707;SDS011;17458;48.958;8.284;2024-03-02T15:02:28;1.30;;;1.20;;
30707;SDS011;17458;48.958;8.284;2024-03-02T15:05:12;1.98;;;1.67;;
30707;SDS011;17458;48.958;8.284;2024-03-02T15:07:57;2.67;;;1.75;;
30707;SDS011;17458;48.958;8.284;2024-03-02T15:10:43;1.48;;;1.35;;
30707;SDS011;17458;48.958;8.284;2024-03-02T15:13:27;2.33;;;2.13;;
30707;SDS011;17458;48.958;8.284;2024-03-02T15:16:11;4.60;;;1.90;;
30707;SDS011;17458;48.958;8.284;2024-03-02T15:18:55;4.57;;;1.58;;
30707;SDS011;17458;48.958;8.284;2024-03-02T15:21:39;1.48;;;1.25;;
30707;SDS011;17458;48.958;8.284;2024-03-02T15:24:23;5.57;;;1.95;;
30707;SDS011;17458;48.958;8.284;2024-03-02T15:27:08;1.80;;;1.60;;
30707;SDS011;17458;48.958;8.284;2024-03-02T15:29:52;3.55;;;1.27;;
30707;SDS011;17458;48.958;8.284;2024-03-02T15:32:38;2.85;;;1.60;;
30707;SDS011;17458;48.958;8.284;2024-03-02T15:35:22;3.13;;;2.13;;
30707;SDS011;17458;48.958;8.284;2024-03-02T15:38:06;4.80;;;1.77;;
30707;SDS011;17458;48.958;8.284;2024-03-02T15:40:52;4.10;;;1.60;;
30707;SDS011;17458;48.958;8.284;2024-03-02T15:43:36;2.30;;;1.48;;
30707;SDS011;17458;48.958;8.284;2024-03-02T15:46:22;1.95;;;1.73;;
30707;SDS011;17458;48.958;8.284;2024-03-02T15:49:06;2.53;;;1.92;;
30707;SDS011;17458;48.958;8.284;2024-03-02T15:51:51;3.28;;;2.20;;
30707;SDS011;17458;48.958;8.284;2024-03-02T15:54:36;2.53;;;1.92;;
30707;SDS011;17458;48.958;8.284;2024-03-02T15:57:20;2.67;;;2.20;;
30707;SDS011;17458;48.958;8.284;2024-03-02T16:00:04;2.42;;;1.73;;
30707;SDS011;17458;48.958;8.284;2024-03-02T16:02:55;3.13;;;2.00;;
30707;SDS011;17458;48.958;8.284;2024-03-02T16:05:39;1.85;;;1.60;;
30707;SDS011;17458;48.958;8.284;2024-03-02T16:08:23;4.53;;;2.53;;
30707;SDS011;17458;48.958;8.284;2024-03-02T16:11:07;3.72;;;2.10;;
30707;SDS011;17458;48.958;8.284;2024-03-02T16:13:51;4.28;;;2.80;;
30707;SDS011;17458;48.958;8.284;2024-03-02T16:16:35;6.38;;;3.13;;
30707;SDS011;17458;48.958;8.284;2024-03-02T16:19:19;4.90;;;3.78;;
30707;SDS011;17458;48.958;8.284;2024-03-02T16:22:03;20.60;;;7.35;;
30707;SDS011;17458;48.958;8.284;2024-03-02T16:24:50;7.32;;;4.45;;
30707;SDS011;17458;48.958;8.284;2024-03-02T16:27:34;6.15;;;3.97;;
30707;SDS011;17458;48.958;8.284;2024-03-02T16:30:18;8.68;;;4.88;;
30707;SDS011;17458;48.958;8.284;2024-03-02T16:33:03;4.32;;;3.25;;
30707;SDS011;17458;48.958;8.284;2024-03-02T16:35:48;5.28;;;3.90;;
30707;SDS011;17458;48.958;8.284;2024-03-02T16:38:33;5.13;;;3.40;;
30707;SDS011;17458;48.958;8.284;2024-03-02T16:41:17;7.00;;;4.30;;
30707;SDS011;17458;48.958;8.284;2024-03-02T16:44:02;4.15;;;3.35;;